sensor_id;sensor_type;location;lat;lon;timestamp;pressure;altitude;pressure_sealevel;temperature;humidity
23281;BME280;11809;56.390;-3.266;2024-01-15T00:02:14;100670.53;;;11.02;52.91
23281;BME280;11809;56.390;-3.266;2024-01-15T00:04:44;100666.22;;;11.01;52.90
23281;BME280;11809;56.390;-3.266;2024-01-15T00:07:15;100654.03;;;10.99;52.78
23281;BME280;11809;56.390;-3.266;2024-01-15T00:09:46;100652.31;;;10.98;52.71
23281;BME280;11809;56.390;-3.266;2024-01-15T00:12:17;100663.94;;;10.92;52.93
23281;BME280;11809;56.390;-3.266;2024-01-15T00:14:50;100660.44;;;10.91;53.05
23281;BME280;11809;56.390;-3.266;2024-01-15T00:17:21;100641.78;;;10.77;53.04
23281;BME280;11809;56.390;-3.266;2024-01-15T00:19:52;100654.50;;;10.88;53.14
23281;BME280;11809;56.390;-3.266;2024-01-15T00:22:25;100648.41;;;10.86;53.29
23281;BME280;11809;56.390;-3.266;2024-01-15T00:24:56;100634.56;;;10.82;53.40
23281;BME280;11809;56.390;-3.266;2024-01-15T00:27:26;100637.25;;;10.81;53.33
23281;BME280;11809;56.390;-3.266;2024-01-15T00:29:59;100632.06;;;10.79;53.47
23281;BME280;11809;56.390;-3.266;2024-01-15T00:32:30;100621.75;;;10.75;53.17
23281;BME280;11809;56.390;-3.266;2024-01-15T00:35:01;100634.88;;;10.75;53.51
23281;BME280;11809;56.390;-3.266;2024-01-15T00:37:31;100631.50;;;10.71;53.61
23281;BME280;11809;56.390;-3.266;2024-01-15T00:40:02;100636.09;;;10.66;53.63
23281;BME280;11809;56.390;-3.266;2024-01-15T00:42:33;100622.88;;;10.68;53.40
23281;BME280;11809;56.390;-3.266;2024-01-15T00:45:07;100612.50;;;10.65;53.59
23281;BME280;11809;56.390;-3.266;2024-01-15T00:47:38;100616.19;;;10.61;53.52
23281;BME280;11809;56.390;-3.266;2024-01-15T00:50:09;100621.44;;;10.61;53.57
23281;BME280;11809;56.390;-3.266;2024-01-15T00:52:40;100616.53;;;10.52;53.59
23281;BME280;11809;56.390;-3.266;2024-01-15T00:55:10;100620.81;;;10.54;53.52
23281;BME280;11809;56.390;-3.266;2024-01-15T00:57:41;100621.09;;;10.48;53.71
23281;BME280;11809;56.390;-3.266;2024-01-15T01:00:15;100620.91;;;10.53;53.46
23281;BME280;11809;56.390;-3.266;2024-01-15T01:02:45;100599.25;;;10.46;53.46
23281;BME280;11809;56.390;-3.266;2024-01-15T01:05:16;100590.91;;;10.37;53.55
23281;BME280;11809;56.390;-3.266;2024-01-15T01:07:46;100609.84;;;10.45;53.83
23281;BME280;11809;56.390;-3.266;2024-01-15T01:10:17;100605.69;;;10.39;53.51
23281;BME280;11809;56.390;-3.266;2024-01-15T01:12:47;100604.59;;;10.45;53.53
23281;BME280;11809;56.390;-3.266;2024-01-15T01:15:20;100614.22;;;10.44;53.70
23281;BME280;11809;56.390;-3.266;2024-01-15T01:17:51;100604.69;;;10.42;53.60
23281;BME280;11809;56.390;-3.266;2024-01-15T01:20:22;100605.59;;;10.41;53.82
23281;BME280;11809;56.390;-3.266;2024-01-15T01:22:53;100610.19;;;10.35;53.88
23281;BME280;11809;56.390;-3.266;2024-01-15T01:25:23;100613.88;;;10.31;53.89
23281;BME280;11809;56.390;-3.266;2024-01-15T01:27:53;100603.38;;;10.31;53.99
23281;BME280;11809;56.390;-3.266;2024-01-15T01:30:26;100607.75;;;10.31;54.14
23281;BME280;11809;56.390;-3.266;2024-01-15T01:32:57;100605.91;;;10.33;53.96
23281;BME280;11809;56.390;-3.266;2024-01-15T01:35:27;100613.09;;;10.29;54.11
23281;BME280;11809;56.390;-3.266;2024-01-15T01:37:58;100611.28;;;10.30;53.75
23281;BME280;11809;56.390;-3.266;2024-01-15T01:40:28;100588.06;;;10.19;54.03
23281;BME280;11809;56.390;-3.266;2024-01-15T01:42:59;100596.50;;;10.27;53.76
23281;BME280;11809;56.390;-3.266;2024-01-15T01:45:32;100599.31;;;10.23;54.20
23281;BME280;11809;56.390;-3.266;2024-01-15T01:48:04;100599.56;;;10.17;54.25
23281;BME280;11809;56.390;-3.266;2024-01-15T01:50:35;100600.41;;;10.17;54.27
23281;BME280;11809;56.390;-3.266;2024-01-15T01:53:06;100596.09;;;10.16;54.12
23281;BME280;11809;56.390;-3.266;2024-01-15T01:55:38;100597.13;;;10.12;54.37
23281;BME280;11809;56.390;-3.266;2024-01-15T01:58:09;100599.75;;;10.12;54.27
23281;BME280;11809;56.390;-3.266;2024-01-15T02:00:42;100597.00;;;10.15;54.26
23281;BME280;11809;56.390;-3.266;2024-01-15T02:03:13;100598.84;;;10.13;54.42
23281;BME280;11809;56.390;-3.266;2024-01-15T02:05:44;100600.50;;;10.16;54.40
23281;BME280;11809;56.390;-3.266;2024-01-15T02:08:16;100598.91;;;10.10;54.52
23281;BME280;11809;56.390;-3.266;2024-01-15T02:10:46;100591.75;;;10.15;54.45
23281;BME280;11809;56.390;-3.266;2024-01-15T02:13:17;100597.16;;;10.11;54.52
23281;BME280;11809;56.390;-3.266;2024-01-15T02:15:50;100599.03;;;10.07;54.57
23281;BME280;11809;56.390;-3.266;2024-01-15T02:18:20;100594.81;;;10.03;54.52
23281;BME280;11809;56.390;-3.266;2024-01-15T02:20:51;100596.41;;;10.07;54.53
23281;BME280;11809;56.390;-3.266;2024-01-15T02:23:24;100593.91;;;10.04;54.57
23281;BME280;11809;56.390;-3.266;2024-01-15T02:25:55;100594.88;;;10.02;54.54
23281;BME280;11809;56.390;-3.266;2024-01-15T02:28:25;100601.88;;;10.01;54.76
23281;BME280;11809;56.390;-3.266;2024-01-15T02:30:55;100600.13;;;10.02;54.54
23281;BME280;11809;56.390;-3.266;2024-01-15T02:33:26;100607.13;;;10.01;54.73
23281;BME280;11809;56.390;-3.266;2024-01-15T02:35:56;100611.41;;;10.04;54.98
23281;BME280;11809;56.390;-3.266;2024-01-15T02:38:29;100615.88;;;10.02;54.72
23281;BME280;11809;56.390;-3.266;2024-01-15T02:40:59;100623.81;;;10.00;54.88
23281;BME280;11809;56.390;-3.266;2024-01-15T02:43:30;100625.78;;;9.95;54.71
23281;BME280;11809;56.390;-3.266;2024-01-15T02:46:00;100622.28;;;9.95;54.63
23281;BME280;11809;56.390;-3.266;2024-01-15T02:48:31;100622.22;;;9.96;54.76
23281;BME280;11809;56.390;-3.266;2024-01-15T02:51:02;100628.31;;;9.97;54.52
23281;BME280;11809;56.390;-3.266;2024-01-15T02:53:35;100637.06;;;9.97;54.96
23281;BME280;11809;56.390;-3.266;2024-01-15T02:56:07;100635.31;;;9.98;54.79
23281;BME280;11809;56.390;-3.266;2024-01-15T02:58:38;100618.34;;;9.83;54.95
23281;BME280;11809;56.390;-3.266;2024-01-15T03:01:08;100623.66;;;9.82;54.81
23281;BME280;11809;56.390;-3.266;2024-01-15T03:03:40;100627.66;;;9.92;55.06
23281;BME280;11809;56.390;-3.266;2024-01-15T03:06:10;100631.13;;;9.92;54.99
23281;BME280;11809;56.390;-3.266;2024-01-15T03:08:43;100632.81;;;9.93;54.60
23281;BME280;11809;56.390;-3.266;2024-01-15T03:11:14;100631.13;;;9.92;54.76
23281;BME280;11809;56.390;-3.266;2024-01-15T03:13:44;100632.09;;;9.90;54.83
23281;BME280;11809;56.390;-3.266;2024-01-15T03:16:14;100623.41;;;9.88;55.13
23281;BME280;11809;56.390;-3.266;2024-01-15T03:18:47;100636.59;;;9.86;55.17
23281;BME280;11809;56.390;-3.266;2024-01-15T03:21:17;100632.31;;;9.84;55.22
23281;BME280;11809;56.390;-3.266;2024-01-15T03:23:50;100627.97;;;9.83;55.35
23281;BME280;11809;56.390;-3.266;2024-01-15T03:26:21;100619.25;;;9.82;55.34
23281;BME280;11809;56.390;-3.266;2024-01-15T03:28:51;100619.25;;;9.82;55.10
23281;BME280;11809;56.390;-3.266;2024-01-15T03:31:21;100611.44;;;9.81;55.10
23281;BME280;11809;56.390;-3.266;2024-01-15T03:33:52;100620.19;;;9.81;55.19
23281;BME280;11809;56.390;-3.266;2024-01-15T03:36:23;100614.06;;;9.81;55.26
23281;BME280;11809;56.390;-3.266;2024-01-15T03:38:56;100604.06;;;9.67;55.35
23281;BME280;11809;56.390;-3.266;2024-01-15T03:41:26;100614.34;;;9.73;55.24
23281;BME280;11809;56.390;-3.266;2024-01-15T03:43:56;100620.56;;;9.70;55.58
23281;BME280;11809;56.390;-3.266;2024-01-15T03:46:27;100616.88;;;9.76;55.09
23281;BME280;11809;56.390;-3.266;2024-01-15T03:48:57;100627.41;;;9.74;55.18
23281;BME280;11809;56.390;-3.266;2024-01-15T03:51:28;100624.00;;;9.72;55.19
23281;BME280;11809;56.390;-3.266;2024-01-15T03:54:01;100624.84;;;9.73;55.32
23281;BME280;11809;56.390;-3.266;2024-01-15T03:56:31;100619.22;;;9.60;55.07
23281;BME280;11809;56.390;-3.266;2024-01-15T03:59:02;100635.47;;;9.70;55.26
23281;BME280;11809;56.390;-3.266;2024-01-15T04:01:33;100638.09;;;9.70;55.28
23281;BME280;11809;56.390;-3.266;2024-01-15T04:04:03;100646.84;;;9.69;55.53
23281;BME280;11809;56.390;-3.266;2024-01-15T04:06:34;100633.81;;;9.67;55.36
23281;BME280;11809;56.390;-3.266;2024-01-15T04:09:07;100638.25;;;9.65;55.60
23281;BME280;11809;56.390;-3.266;2024-01-15T04:11:37;100633.00;;;9.65;55.59
23281;BME280;11809;56.390;-3.266;2024-01-15T04:14:08;100646.16;;;9.64;55.36
23281;BME280;11809;56.390;-3.266;2024-01-15T04:16:38;100641.00;;;9.62;55.38
23281;BME280;11809;56.390;-3.266;2024-01-15T04:19:08;100636.72;;;9.60;55.42
23281;BME280;11809;56.390;-3.266;2024-01-15T04:21:39;100643.66;;;9.61;55.64
23281;BME280;11809;56.390;-3.266;2024-01-15T04:24:12;100641.88;;;9.61;55.46
23281;BME280;11809;56.390;-3.266;2024-01-15T04:26:45;100645.47;;;9.59;55.64
23281;BME280;11809;56.390;-3.266;2024-01-15T04:29:15;100612.63;;;9.49;55.56
23281;BME280;11809;56.390;-3.266;2024-01-15T04:31:46;100630.69;;;9.58;55.51
23281;BME280;11809;56.390;-3.266;2024-01-15T04:34:16;100628.94;;;9.57;55.70
23281;BME280;11809;56.390;-3.266;2024-01-15T04:36:47;100637.72;;;9.56;55.47
23281;BME280;11809;56.390;-3.266;2024-01-15T04:39:20;100641.38;;;9.52;55.77
23281;BME280;11809;56.390;-3.266;2024-01-15T04:41:51;100627.34;;;9.53;55.69
23281;BME280;11809;56.390;-3.266;2024-01-15T04:44:22;100637.81;;;9.53;55.63
23281;BME280;11809;56.390;-3.266;2024-01-15T04:46:53;100627.47;;;9.50;55.75
23281;BME280;11809;56.390;-3.266;2024-01-15T04:49:23;100626.53;;;9.51;55.75
23281;BME280;11809;56.390;-3.266;2024-01-15T04:51:54;100617.09;;;9.47;55.57
23281;BME280;11809;56.390;-3.266;2024-01-15T04:54:27;100621.47;;;9.46;55.75
23281;BME280;11809;56.390;-3.266;2024-01-15T04:56:58;100618.88;;;9.45;55.37
23281;BME280;11809;56.390;-3.266;2024-01-15T04:59:28;100619.75;;;9.45;55.60
23281;BME280;11809;56.390;-3.266;2024-01-15T05:01:58;100620.72;;;9.43;55.65
23281;BME280;11809;56.390;-3.266;2024-01-15T05:04:28;100614.56;;;9.44;55.35
23281;BME280;11809;56.390;-3.266;2024-01-15T05:07:00;100616.41;;;9.42;55.43
23281;BME280;11809;56.390;-3.266;2024-01-15T05:09:33;100609.34;;;9.42;55.40
23281;BME280;11809;56.390;-3.266;2024-01-15T05:12:04;100626.91;;;9.40;55.62
23281;BME280;11809;56.390;-3.266;2024-01-15T05:14:34;100631.31;;;9.40;55.48
23281;BME280;11809;56.390;-3.266;2024-01-15T05:17:05;100627.97;;;9.36;55.47
23281;BME280;11809;56.390;-3.266;2024-01-15T05:19:37;100629.66;;;9.37;55.59
23281;BME280;11809;56.390;-3.266;2024-01-15T05:22:08;100628.00;;;9.35;55.49
23281;BME280;11809;56.390;-3.266;2024-01-15T05:24:41;100630.63;;;9.35;55.49
23281;BME280;11809;56.390;-3.266;2024-01-15T05:27:11;100623.44;;;9.40;55.24
23281;BME280;11809;56.390;-3.266;2024-01-15T05:29:42;100639.13;;;9.41;55.54
23281;BME280;11809;56.390;-3.266;2024-01-15T05:32:12;100627.69;;;9.44;55.41
23281;BME280;11809;56.390;-3.266;2024-01-15T05:34:42;100629.16;;;9.51;55.68
23281;BME280;11809;56.390;-3.266;2024-01-15T05:37:13;100629.16;;;9.51;55.56
23281;BME280;11809;56.390;-3.266;2024-01-15T05:39:46;100633.50;;;9.52;55.45
23281;BME280;11809;56.390;-3.266;2024-01-15T05:42:16;100629.22;;;9.49;55.68
23281;BME280;11809;56.390;-3.266;2024-01-15T05:44:46;100636.25;;;9.49;55.90
23281;BME280;11809;56.390;-3.266;2024-01-15T05:47:17;100619.13;;;9.39;55.94
23281;BME280;11809;56.390;-3.266;2024-01-15T05:49:47;100643.22;;;9.50;56.03
23281;BME280;11809;56.390;-3.266;2024-01-15T05:52:18;100647.41;;;9.54;55.91
23281;BME280;11809;56.390;-3.266;2024-01-15T05:54:51;100622.44;;;9.44;56.35
23281;BME280;11809;56.390;-3.266;2024-01-15T05:57:22;100636.84;;;9.55;56.30
23281;BME280;11809;56.390;-3.266;2024-01-15T05:59:52;100634.78;;;9.65;56.36
23281;BME280;11809;56.390;-3.266;2024-01-15T06:02:23;100635.38;;;9.71;56.42
23281;BME280;11809;56.390;-3.266;2024-01-15T06:04:53;100611.94;;;9.67;56.47
23281;BME280;11809;56.390;-3.266;2024-01-15T06:07:24;100638.44;;;9.84;56.65
23281;BME280;11809;56.390;-3.266;2024-01-15T06:09:57;100639.34;;;9.83;56.44
23281;BME280;11809;56.390;-3.266;2024-01-15T06:12:28;100645.66;;;9.77;56.28
23281;BME280;11809;56.390;-3.266;2024-01-15T06:14:59;100632.16;;;9.65;56.52
23281;BME280;11809;56.390;-3.266;2024-01-15T06:17:29;100645.84;;;9.73;56.88
23281;BME280;11809;56.390;-3.266;2024-01-15T06:20:00;100638.66;;;9.78;57.18
23281;BME280;11809;56.390;-3.266;2024-01-15T06:22:31;100639.56;;;9.77;57.20
23281;BME280;11809;56.390;-3.266;2024-01-15T06:25:05;100621.75;;;9.62;57.09
23281;BME280;11809;56.390;-3.266;2024-01-15T06:27:36;100637.97;;;9.73;57.03
23281;BME280;11809;56.390;-3.266;2024-01-15T06:30:07;100626.69;;;9.71;57.17
23281;BME280;11809;56.390;-3.266;2024-01-15T06:32:38;100641.56;;;9.70;56.79
23281;BME280;11809;56.390;-3.266;2024-01-15T06:35:09;100638.09;;;9.70;57.19
23281;BME280;11809;56.390;-3.266;2024-01-15T06:37:39;100638.16;;;9.68;56.33
23281;BME280;11809;56.390;-3.266;2024-01-15T06:40:13;100646.06;;;9.67;56.31
23281;BME280;11809;56.390;-3.266;2024-01-15T06:42:43;100642.66;;;9.65;56.16
23281;BME280;11809;56.390;-3.266;2024-01-15T06:45:14;100638.47;;;9.59;55.88
23281;BME280;11809;56.390;-3.266;2024-01-15T06:47:44;100647.31;;;9.57;56.20
23281;BME280;11809;56.390;-3.266;2024-01-15T06:50:15;100654.38;;;9.55;55.92
23281;BME280;11809;56.390;-3.266;2024-01-15T06:52:45;100658.81;;;9.53;55.91
23281;BME280;11809;56.390;-3.266;2024-01-15T06:55:18;100669.31;;;9.53;55.80
23281;BME280;11809;56.390;-3.266;2024-01-15T06:57:49;100668.50;;;9.51;56.12
23281;BME280;11809;56.390;-3.266;2024-01-15T07:00:20;100672.84;;;9.52;56.06
23281;BME280;11809;56.390;-3.266;2024-01-15T07:02:50;100674.44;;;9.56;56.02
23281;BME280;11809;56.390;-3.266;2024-01-15T07:05:21;100668.31;;;9.57;56.91
23281;BME280;11809;56.390;-3.266;2024-01-15T07:07:54;100675.38;;;9.55;56.84
23281;BME280;11809;56.390;-3.266;2024-01-15T07:10:28;100679.94;;;9.50;56.73
23281;BME280;11809;56.390;-3.266;2024-01-15T07:13:03;100681.72;;;9.48;56.78
23281;BME280;11809;56.390;-3.266;2024-01-15T07:15:34;100681.72;;;9.48;56.94
23281;BME280;11809;56.390;-3.266;2024-01-15T07:18:05;100662.06;;;9.36;56.77
23281;BME280;11809;56.390;-3.266;2024-01-15T07:20:36;100681.81;;;9.45;56.96
23281;BME280;11809;56.390;-3.266;2024-01-15T07:23:07;100677.44;;;9.45;57.02
23281;BME280;11809;56.390;-3.266;2024-01-15T07:25:40;100684.59;;;9.42;56.80
23281;BME280;11809;56.390;-3.266;2024-01-15T07:28:10;100670.41;;;9.47;57.01
23281;BME280;11809;56.390;-3.266;2024-01-15T07:30:40;100666.94;;;9.45;56.71
23281;BME280;11809;56.390;-3.266;2024-01-15T07:33:12;100669.69;;;9.42;55.99
23281;BME280;11809;56.390;-3.266;2024-01-15T07:35:43;100665.56;;;9.35;55.58
23281;BME280;11809;56.390;-3.266;2024-01-15T07:38:14;100672.63;;;9.33;55.85
23281;BME280;11809;56.390;-3.266;2024-01-15T07:40:47;100671.25;;;9.23;56.02
23281;BME280;11809;56.390;-3.266;2024-01-15T07:43:17;100683.75;;;9.15;56.21
23281;BME280;11809;56.390;-3.266;2024-01-15T07:45:48;100682.19;;;9.09;56.43
23281;BME280;11809;56.390;-3.266;2024-01-15T07:48:18;100675.34;;;9.05;56.51
23281;BME280;11809;56.390;-3.266;2024-01-15T07:50:49;100665.88;;;9.01;56.94
23281;BME280;11809;56.390;-3.266;2024-01-15T07:53:20;100669.56;;;8.96;56.78
23281;BME280;11809;56.390;-3.266;2024-01-15T07:55:53;100669.66;;;8.93;56.90
23281;BME280;11809;56.390;-3.266;2024-01-15T07:58:23;100676.75;;;8.89;57.23
23281;BME280;11809;56.390;-3.266;2024-01-15T08:00:54;100675.94;;;8.87;57.10
23281;BME280;11809;56.390;-3.266;2024-01-15T08:03:25;100670.81;;;8.84;57.09
23281;BME280;11809;56.390;-3.266;2024-01-15T08:05:56;100665.63;;;8.83;57.18
23281;BME280;11809;56.390;-3.266;2024-01-15T08:08:27;100671.81;;;8.80;57.17
23281;BME280;11809;56.390;-3.266;2024-01-15T08:11:00;100672.72;;;8.79;57.50
23281;BME280;11809;56.390;-3.266;2024-01-15T08:13:30;100671.16;;;8.74;57.26
23281;BME280;11809;56.390;-3.266;2024-01-15T08:16:01;100675.53;;;8.73;57.60
23281;BME280;11809;56.390;-3.266;2024-01-15T08:18:32;100678.16;;;8.73;57.60
23281;BME280;11809;56.390;-3.266;2024-01-15T08:21:03;100680.81;;;8.72;57.69
23281;BME280;11809;56.390;-3.266;2024-01-15T08:23:34;100689.56;;;8.72;57.59
23281;BME280;11809;56.390;-3.266;2024-01-15T08:26:08;100694.88;;;8.69;57.67
23281;BME280;11809;56.390;-3.266;2024-01-15T08:28:38;100689.72;;;8.66;57.68
23281;BME280;11809;56.390;-3.266;2024-01-15T08:31:09;100688.31;;;8.56;57.87
23281;BME280;11809;56.390;-3.266;2024-01-15T08:33:40;100707.38;;;8.61;57.67
23281;BME280;11809;56.390;-3.266;2024-01-15T08:36:11;100712.59;;;8.61;57.87
23281;BME280;11809;56.390;-3.266;2024-01-15T08:38:41;100717.94;;;8.58;57.88
23281;BME280;11809;56.390;-3.266;2024-01-15T08:41:15;100716.19;;;8.57;57.79
23281;BME280;11809;56.390;-3.266;2024-01-15T08:43:45;100696.50;;;8.45;57.74
23281;BME280;11809;56.390;-3.266;2024-01-15T08:46:16;100717.16;;;8.54;57.61
23281;BME280;11809;56.390;-3.266;2024-01-15T08:48:46;100712.03;;;8.51;57.98
23281;BME280;11809;56.390;-3.266;2024-01-15T08:51:17;100717.28;;;8.51;57.73
23281;BME280;11809;56.390;-3.266;2024-01-15T08:53:48;100726.03;;;8.50;57.74
23281;BME280;11809;56.390;-3.266;2024-01-15T08:56:21;100721.66;;;8.51;57.95
23281;BME280;11809;56.390;-3.266;2024-01-15T08:58:51;100715.06;;;8.38;57.92
23281;BME280;11809;56.390;-3.266;2024-01-15T09:01:22;100736.59;;;8.47;57.88
23281;BME280;11809;56.390;-3.266;2024-01-15T09:03:53;100732.31;;;8.45;58.00
23281;BME280;11809;56.390;-3.266;2024-01-15T09:06:23;100731.50;;;8.43;57.89
23281;BME280;11809;56.390;-3.266;2024-01-15T09:08:54;100725.72;;;8.32;57.98
23281;BME280;11809;56.390;-3.266;2024-01-15T09:11:27;100742.88;;;8.42;58.00
23281;BME280;11809;56.390;-3.266;2024-01-15T09:13:58;100741.13;;;8.41;58.12
23281;BME280;11809;56.390;-3.266;2024-01-15T09:16:29;100742.88;;;8.42;57.70
23281;BME280;11809;56.390;-3.266;2024-01-15T09:19:00;100741.97;;;8.43;57.91
23281;BME280;11809;56.390;-3.266;2024-01-15T09:21:31;100742.88;;;8.42;57.85
23281;BME280;11809;56.390;-3.266;2024-01-15T09:24:02;100747.31;;;8.40;58.13
23281;BME280;11809;56.390;-3.266;2024-01-15T09:26:35;100760.38;;;8.40;57.96
23281;BME280;11809;56.390;-3.266;2024-01-15T09:29:05;100756.75;;;8.44;57.72
23281;BME280;11809;56.390;-3.266;2024-01-15T09:31:37;100762.00;;;8.44;58.10
23281;BME280;11809;56.390;-3.266;2024-01-15T09:34:09;100751.84;;;8.33;57.84
23281;BME280;11809;56.390;-3.266;2024-01-15T09:36:40;100755.06;;;8.43;58.05
23281;BME280;11809;56.390;-3.266;2024-01-15T09:39:10;100759.47;;;8.41;57.78
23281;BME280;11809;56.390;-3.266;2024-01-15T09:41:45;100755.06;;;8.43;57.93
23281;BME280;11809;56.390;-3.266;2024-01-15T09:44:17;100768.25;;;8.40;57.94
23281;BME280;11809;56.390;-3.266;2024-01-15T09:46:48;100763.09;;;8.37;57.84
23281;BME280;11809;56.390;-3.266;2024-01-15T09:49:19;100764.00;;;8.36;58.06
23281;BME280;11809;56.390;-3.266;2024-01-15T09:51:51;100760.47;;;8.37;57.82
23281;BME280;11809;56.390;-3.266;2024-01-15T09:54:31;100761.19;;;8.42;57.99
23281;BME280;11809;56.390;-3.266;2024-01-15T09:57:06;100743.25;;;8.30;57.85
23281;BME280;11809;56.390;-3.266;2024-01-15T09:59:37;100758.75;;;8.36;58.03
23281;BME280;11809;56.390;-3.266;2024-01-15T10:02:10;100757.91;;;8.35;58.06
23281;BME280;11809;56.390;-3.266;2024-01-15T10:04:46;100764.00;;;8.36;58.05
23281;BME280;11809;56.390;-3.266;2024-01-15T10:07:16;100746.88;;;8.24;58.15
23281;BME280;11809;56.390;-3.266;2024-01-15T10:09:47;100767.53;;;8.35;58.17
23281;BME280;11809;56.390;-3.266;2024-01-15T10:12:22;100759.69;;;8.33;58.01
23281;BME280;11809;56.390;-3.266;2024-01-15T10:14:56;100771.97;;;8.33;57.96
23281;BME280;11809;56.390;-3.266;2024-01-15T10:17:27;100767.63;;;8.32;58.04
23281;BME280;11809;56.390;-3.266;2024-01-15T10:19:58;100778.09;;;8.32;58.04
23281;BME280;11809;56.390;-3.266;2024-01-15T10:22:31;100771.97;;;8.31;58.05
23281;BME280;11809;56.390;-3.266;2024-01-15T10:25:02;100769.34;;;8.33;58.16
23281;BME280;11809;56.390;-3.266;2024-01-15T10:27:36;100770.16;;;8.33;58.25
23281;BME280;11809;56.390;-3.266;2024-01-15T10:30:08;100778.91;;;8.34;58.12
23281;BME280;11809;56.390;-3.266;2024-01-15T10:32:40;100779.75;;;8.34;58.15
23281;BME280;11809;56.390;-3.266;2024-01-15T10:35:12;100782.44;;;8.33;58.18
23281;BME280;11809;56.390;-3.266;2024-01-15T10:37:42;100783.31;;;8.32;58.06
23281;BME280;11809;56.390;-3.266;2024-01-15T10:40:13;100767.88;;;8.21;58.04
23281;BME280;11809;56.390;-3.266;2024-01-15T10:42:47;100776.34;;;8.31;58.20
23281;BME280;11809;56.390;-3.266;2024-01-15T10:45:18;100771.97;;;8.31;58.25
23281;BME280;11809;56.390;-3.266;2024-01-15T10:47:48;100755.69;;;8.20;58.17
23281;BME280;11809;56.390;-3.266;2024-01-15T10:50:19;100774.66;;;8.30;58.05
23281;BME280;11809;56.390;-3.266;2024-01-15T10:52:50;100778.09;;;8.30;58.27
23281;BME280;11809;56.390;-3.266;2024-01-15T10:55:23;100776.34;;;8.31;58.24
23281;BME280;11809;56.390;-3.266;2024-01-15T10:57:57;100785.97;;;8.30;58.03
23281;BME280;11809;56.390;-3.266;2024-01-15T11:00:28;100775.50;;;8.30;58.04
23281;BME280;11809;56.390;-3.266;2024-01-15T11:03:00;100789.44;;;8.31;57.96
23281;BME280;11809;56.390;-3.266;2024-01-15T11:05:34;100779.91;;;8.30;58.21
23281;BME280;11809;56.390;-3.266;2024-01-15T11:08:06;100782.47;;;8.31;58.34
23281;BME280;11809;56.390;-3.266;2024-01-15T11:10:41;100790.38;;;8.30;58.26
23281;BME280;11809;56.390;-3.266;2024-01-15T11:13:20;100784.22;;;8.31;58.04
23281;BME280;11809;56.390;-3.266;2024-01-15T11:15:58;100782.47;;;8.31;58.30
23281;BME280;11809;56.390;-3.266;2024-01-15T11:18:30;100784.28;;;8.29;57.99
23281;BME280;11809;56.390;-3.266;2024-01-15T11:21:28;100779.06;;;8.28;58.14
23281;BME280;11809;56.390;-3.266;2024-01-15T11:24:00;100775.56;;;8.29;58.28
23281;BME280;11809;56.390;-3.266;2024-01-15T11:26:36;100775.56;;;8.29;58.27
23281;BME280;11809;56.390;-3.266;2024-01-15T11:32:00;100774.75;;;8.27;58.27
23281;BME280;11809;56.390;-3.266;2024-01-15T11:34:51;100780.84;;;8.27;58.09
23281;BME280;11809;56.390;-3.266;2024-01-15T11:37:22;100769.50;;;8.27;58.44
23281;BME280;11809;56.390;-3.266;2024-01-15T11:39:54;100772.13;;;8.27;58.51
23281;BME280;11809;56.390;-3.266;2024-01-15T11:42:25;100766.88;;;8.27;58.19
23281;BME280;11809;56.390;-3.266;2024-01-15T11:45:00;100769.50;;;8.27;58.47
23281;BME280;11809;56.390;-3.266;2024-01-15T11:48:04;100767.75;;;8.26;58.28
23281;BME280;11809;56.390;-3.266;2024-01-15T11:50:41;100762.50;;;8.26;58.28
23281;BME280;11809;56.390;-3.266;2024-01-15T11:53:27;100767.81;;;8.24;58.44
23281;BME280;11809;56.390;-3.266;2024-01-15T11:56:09;100774.78;;;8.24;58.62
23281;BME280;11809;56.390;-3.266;2024-01-15T11:58:42;100747.91;;;8.17;58.37
23281;BME280;11809;56.390;-3.266;2024-01-15T12:01:16;100765.13;;;8.27;58.37
23281;BME280;11809;56.390;-3.266;2024-01-15T12:03:48;100759.03;;;8.27;58.29
23281;BME280;11809;56.390;-3.266;2024-01-15T12:06:19;100766.84;;;8.28;58.37
23281;BME280;11809;56.390;-3.266;2024-01-15T12:08:50;100765.03;;;8.30;58.32
23281;BME280;11809;56.390;-3.266;2024-01-15T12:11:23;100775.47;;;8.32;58.21
23281;BME280;11809;56.390;-3.266;2024-01-15T12:13:55;100771.03;;;8.34;58.21
23281;BME280;11809;56.390;-3.266;2024-01-15T12:16:29;100779.75;;;8.34;58.06
23281;BME280;11809;56.390;-3.266;2024-01-15T12:19:01;100784.03;;;8.37;58.07
23281;BME280;11809;56.390;-3.266;2024-01-15T12:21:32;100775.19;;;8.41;57.13
23281;BME280;11809;56.390;-3.266;2024-01-15T12:24:03;100784.75;;;8.42;56.99
23281;BME280;11809;56.390;-3.266;2024-01-15T12:26:34;100783.00;;;8.42;57.20
23281;BME280;11809;56.390;-3.266;2024-01-15T12:29:06;100783.81;;;8.44;57.25
23281;BME280;11809;56.390;-3.266;2024-01-15T12:31:39;100779.53;;;8.42;57.66
23281;BME280;11809;56.390;-3.266;2024-01-15T12:34:11;100778.63;;;8.43;57.86
23281;BME280;11809;56.390;-3.266;2024-01-15T12:36:41;100783.03;;;8.41;57.73
23281;BME280;11809;56.390;-3.266;2024-01-15T12:39:13;100773.41;;;8.43;57.92
23281;BME280;11809;56.390;-3.266;2024-01-15T12:41:44;100767.25;;;8.44;57.92
23281;BME280;11809;56.390;-3.266;2024-01-15T12:44:15;100765.34;;;8.49;57.46
23281;BME280;11809;56.390;-3.266;2024-01-15T12:46:48;100758.34;;;8.49;57.82
23281;BME280;11809;56.390;-3.266;2024-01-15T12:49:19;100752.22;;;8.50;57.78
23281;BME280;11809;56.390;-3.266;2024-01-15T12:51:53;100760.88;;;8.52;57.50
23281;BME280;11809;56.390;-3.266;2024-01-15T12:54:24;100758.22;;;8.54;57.78
23281;BME280;11809;56.390;-3.266;2024-01-15T12:56:55;100757.28;;;8.57;57.88
23281;BME280;11809;56.390;-3.266;2024-01-15T12:59:25;100764.22;;;8.58;57.87
23281;BME280;11809;56.390;-3.266;2024-01-15T13:01:59;100761.56;;;8.59;57.86
23281;BME280;11809;56.390;-3.266;2024-01-15T13:04:30;100765.88;;;8.60;57.79
23281;BME280;11809;56.390;-3.266;2024-01-15T13:07:01;100754.50;;;8.61;57.48
23281;BME280;11809;56.390;-3.266;2024-01-15T13:09:31;100764.09;;;8.62;57.30
23281;BME280;11809;56.390;-3.266;2024-01-15T13:12:03;100763.97;;;8.65;57.38
23281;BME280;11809;56.390;-3.266;2024-01-15T13:14:33;100753.50;;;8.65;57.38